createdAt,value
2019-02-06T00:01:24.564Z,27.47
2019-02-06T00:03:56.172Z,25.13
2019-02-06T00:06:27.809Z,34.73
2019-02-06T00:08:59.588Z,28.10
2019-02-06T00:11:34.921Z,29.37
2019-02-06T00:14:05.650Z,26.87
2019-02-06T00:16:38.246Z,24.20
2019-02-06T00:19:09.846Z,30.17
2019-02-06T00:21:41.690Z,24.33
2019-02-06T00:24:13.208Z,29.17
2019-02-06T00:26:44.852Z,25.33
2019-02-06T00:29:16.565Z,30.07
2019-02-06T00:31:48.118Z,27.97
2019-02-06T00:34:20.137Z,29.97
2019-02-06T00:36:51.639Z,29.93
2019-02-06T00:39:23.454Z,37.30
2019-02-06T00:41:55.981Z,30.50
2019-02-06T00:44:27.827Z,39.60
2019-02-06T00:46:59.396Z,38.17
2019-02-06T00:49:30.955Z,35.70
2019-02-06T00:52:02.505Z,37.13
2019-02-06T00:54:34.440Z,28.73
2019-02-06T00:57:07.503Z,39.37
2019-02-06T00:59:40.426Z,29.57
2019-02-06T01:02:12.061Z,24.67
2019-02-06T01:04:44.595Z,32.17
2019-02-06T01:07:16.522Z,32.30
2019-02-06T01:09:49.301Z,31.63
2019-02-06T01:12:21.426Z,30.83
2019-02-06T01:14:53.213Z,29.60
2019-02-06T01:17:25.991Z,28.93
2019-02-06T01:19:58.374Z,31.53
2019-02-06T01:22:30.628Z,27.40
2019-02-06T01:25:02.594Z,26.87
2019-02-06T01:27:34.630Z,28.70
2019-02-06T01:30:09.066Z,26.17
2019-02-06T01:32:40.547Z,25.83
2019-02-06T01:35:13.176Z,22.80
2019-02-06T01:37:44.871Z,24.67
2019-02-06T01:40:17.888Z,22.30
2019-02-06T01:42:49.599Z,29.10
2019-02-06T01:45:22.335Z,23.53
2019-02-06T01:47:54.522Z,25.10
2019-02-06T01:50:26.166Z,24.60
2019-02-06T01:52:59.099Z,25.60
2019-02-06T01:55:31.697Z,20.13
2019-02-06T01:58:04.889Z,25.17
2019-02-06T02:00:37.512Z,25.20
2019-02-06T02:03:10.801Z,26.17
2019-02-06T02:05:42.719Z,24.13
2019-02-06T02:08:14.963Z,22.63
2019-02-06T02:10:47.224Z,15.03
2019-02-06T02:13:19.816Z,22.67
2019-02-06T02:15:51.900Z,22.97
2019-02-06T02:18:24.813Z,25.73
2019-02-06T02:20:56.637Z,18.23
2019-02-06T02:23:28.446Z,17.93
2019-02-06T02:26:00.838Z,13.23
2019-02-06T02:28:32.734Z,14.37
2019-02-06T02:31:04.632Z,15.00
2019-02-06T02:33:36.183Z,15.87
2019-02-06T02:36:15.676Z,16.60
2019-02-06T02:38:41.629Z,15.50
2019-02-06T02:41:15.853Z,15.63
2019-02-06T02:43:49.349Z,13.60
2019-02-06T02:46:22.465Z,13.20
2019-02-06T02:48:55.287Z,12.30
2019-02-06T02:51:27.041Z,12.83
2019-02-06T02:53:58.610Z,13.80
2019-02-06T02:56:31.700Z,14.50
2019-02-06T02:59:03.179Z,9.43
2019-02-06T03:02:02.875Z,11.77
2019-02-06T03:04:41.758Z,13.27
2019-02-06T03:07:15.337Z,14.23
2019-02-06T03:09:48.690Z,14.40
2019-02-06T03:12:21.645Z,12.53
2019-02-06T03:14:53.435Z,13.60
2019-02-06T03:17:25.849Z,8.33
2019-02-06T03:19:58.490Z,13.03
2019-02-06T03:22:33.024Z,14.23
2019-02-06T03:25:06.056Z,11.07
2019-02-06T03:27:37.744Z,10.30
2019-02-06T03:30:11.684Z,8.40
2019-02-06T03:32:43.979Z,11.07
2019-02-06T03:35:15.932Z,10.10
2019-02-06T03:37:47.747Z,9.63
2019-02-06T03:40:19.744Z,10.63
2019-02-06T03:42:51.982Z,8.90
2019-02-06T03:45:24.186Z,8.27
2019-02-06T03:47:55.742Z,8.33
2019-02-06T03:50:27.854Z,9.07
2019-02-06T03:52:59.560Z,10.17
2019-02-06T03:55:31.726Z,8.90
2019-02-06T03:58:03.531Z,11.27
2019-02-06T04:00:35.454Z,11.00
2019-02-06T04:03:07.880Z,10.80
2019-02-06T04:05:39.712Z,8.47
2019-02-06T04:08:12.526Z,13.50
2019-02-06T04:10:44.593Z,12.73
2019-02-06T04:13:16.813Z,7.57
2019-02-06T04:15:48.528Z,8.63
2019-02-06T04:18:20.268Z,11.53
2019-02-06T04:20:51.712Z,11.13
2019-02-06T04:23:24.420Z,14.40
2019-02-06T04:25:56.661Z,7.03
2019-02-06T04:28:30.446Z,13.37
2019-02-06T04:31:02.633Z,6.67
2019-02-06T04:33:34.334Z,21.40
2019-02-06T04:36:06.947Z,16.93
2019-02-06T04:38:40.896Z,17.63
2019-02-06T04:41:13.288Z,14.73
2019-02-06T04:43:45.598Z,15.73
2019-02-06T04:46:18.824Z,17.03
2019-02-06T04:48:51.052Z,14.80
2019-02-06T04:51:23.231Z,16.97
2019-02-06T04:53:55.827Z,14.33
2019-02-06T04:56:27.535Z,13.87
2019-02-06T04:58:59.652Z,21.20
2019-02-06T05:01:31.504Z,21.10
2019-02-06T05:04:03.762Z,21.23
2019-02-06T05:06:36.590Z,21.10
2019-02-06T05:09:10.424Z,18.00
2019-02-06T05:11:43.746Z,20.77
2019-02-06T05:14:15.442Z,11.77
2019-02-06T05:16:47.259Z,20.87
2019-02-06T05:19:19.614Z,48.43
2019-02-06T05:21:51.827Z,21.90
2019-02-06T05:24:24.725Z,21.43
2019-02-06T05:26:57.058Z,25.70
2019-02-06T05:29:29.030Z,25.43
2019-02-06T05:32:01.432Z,21.77
2019-02-06T05:34:33.465Z,18.00
2019-02-06T05:37:07.029Z,20.27
2019-02-06T05:39:39.791Z,19.63
2019-02-06T05:42:11.710Z,20.10
2019-02-06T05:44:44.070Z,18.80
2019-02-06T05:47:15.819Z,21.63
2019-02-06T05:49:47.867Z,17.97
2019-02-06T05:52:19.615Z,16.83
2019-02-06T05:54:51.578Z,22.30
2019-02-06T05:57:23.605Z,28.33
2019-02-06T05:59:57.374Z,20.73
2019-02-06T06:02:30.133Z,20.80
2019-02-06T06:05:02.449Z,23.87
2019-02-06T06:07:44.638Z,21.10
2019-02-06T06:10:09.597Z,16.20
2019-02-06T06:12:41.132Z,17.90
2019-02-06T06:15:14.313Z,19.37
2019-02-06T06:17:46.681Z,17.30
2019-02-06T06:20:19.353Z,14.73
2019-02-06T06:22:51.670Z,19.67
2019-02-06T06:25:23.897Z,15.77
2019-02-06T06:27:55.773Z,20.07
2019-02-06T06:30:29.416Z,16.03
2019-02-06T06:33:06.803Z,24.10
2019-02-06T06:35:52.158Z,19.97
2019-02-06T06:38:24.319Z,23.73
2019-02-06T06:40:56.559Z,27.77
2019-02-06T06:43:43.359Z,20.60
2019-02-06T06:46:26.798Z,16.77
2019-02-06T06:48:58.798Z,15.67
2019-02-06T06:51:30.958Z,138.43
2019-02-06T06:54:03.198Z,21.07
2019-02-06T06:56:34.738Z,29.80
2019-02-06T06:59:05.577Z,20.33
2019-02-06T07:01:37.889Z,22.23
2019-02-06T07:04:08.708Z,21.10
2019-02-06T07:06:39.517Z,32.77
2019-02-06T07:09:10.815Z,24.00
2019-02-06T07:11:44.423Z,22.70
2019-02-06T07:14:15.273Z,23.67
2019-02-06T07:16:46.104Z,22.47
2019-02-06T07:19:16.861Z,22.97
2019-02-06T07:21:47.664Z,21.27
2019-02-06T07:24:18.478Z,24.50
2019-02-06T07:26:49.293Z,18.10
2019-02-06T07:29:20.034Z,20.00
2019-02-06T07:31:53.143Z,21.93
2019-02-06T07:34:23.954Z,16.97
2019-02-06T07:36:54.989Z,19.63
2019-02-06T07:39:29.822Z,22.80
2019-02-06T07:42:03.130Z,22.47
2019-02-06T07:44:36.213Z,19.00
2019-02-06T07:47:13.516Z,12.63
2019-02-06T07:50:12.537Z,19.53
2019-02-06T07:52:45.387Z,12.10
2019-02-06T07:55:17.709Z,17.47
2019-02-06T07:57:49.443Z,13.73
2019-02-06T08:00:40.185Z,18.50
2019-02-06T08:03:24.397Z,20.80
2019-02-06T08:06:06.381Z,20.60
2019-02-06T08:08:50.785Z,18.40
2019-02-06T08:11:35.820Z,24.10
2019-02-06T08:14:08.190Z,17.87
2019-02-06T08:16:39.684Z,19.37
2019-02-06T08:19:11.570Z,18.10
2019-02-06T08:21:43.212Z,20.93
2019-02-06T08:24:14.976Z,18.70
2019-02-06T08:26:46.759Z,16.30
2019-02-06T08:29:18.859Z,16.57
2019-02-06T08:31:50.549Z,19.10
2019-02-06T08:34:22.258Z,16.60
2019-02-06T08:36:53.792Z,14.60
2019-02-06T08:39:25.311Z,14.47
2019-02-06T08:41:57.349Z,17.57
2019-02-06T08:44:29.251Z,15.63
2019-02-06T08:47:02.566Z,18.23
2019-02-06T08:49:33.932Z,13.23
2019-02-06T08:52:05.454Z,10.53
2019-02-06T08:54:37.816Z,19.60
2019-02-06T08:57:10.172Z,12.10
2019-02-06T08:59:43.219Z,13.50
2019-02-06T09:02:14.806Z,13.17
2019-02-06T09:04:55.561Z,18.87
2019-02-06T09:07:24.004Z,16.37
2019-02-06T09:09:56.512Z,17.63
2019-02-06T09:12:29.739Z,12.57
2019-02-06T09:15:12.666Z,13.03
2019-02-06T09:17:44.576Z,16.27
2019-02-06T09:20:19.004Z,15.27
2019-02-06T09:22:50.576Z,16.80
2019-02-06T09:25:25.095Z,14.70
2019-02-06T09:27:57.097Z,13.80
2019-02-06T09:30:33.767Z,15.27
2019-02-06T09:33:06.770Z,21.50
2019-02-06T09:35:41.767Z,13.67
2019-02-06T09:38:13.488Z,21.80
2019-02-06T09:40:45.087Z,24.17
2019-02-06T09:43:18.650Z,18.70
2019-02-06T09:45:52.494Z,23.93
2019-02-06T09:48:25.808Z,18.43
2019-02-06T09:50:58.167Z,30.73
2019-02-06T09:53:30.055Z,47.77
2019-02-06T09:56:01.859Z,24.93
2019-02-06T09:58:34.461Z,15.50
2019-02-06T10:01:11.582Z,22.73
2019-02-06T10:03:43.822Z,62.00
2019-02-06T10:06:16.796Z,17.47
2019-02-06T10:08:49.559Z,20.53
2019-02-06T10:11:21.158Z,20.97
2019-02-06T10:13:52.888Z,14.93
2019-02-06T10:16:26.163Z,11.60
2019-02-06T10:18:59.716Z,12.60
2019-02-06T10:21:31.876Z,14.07
2019-02-06T10:24:03.526Z,9.57
2019-02-06T10:26:35.876Z,11.73
2019-02-06T10:29:08.645Z,14.30
2019-02-06T10:31:41.768Z,11.40
2019-02-06T10:34:13.680Z,11.93
2019-02-06T10:36:45.395Z,11.57
2019-02-06T10:39:17.117Z,11.30
2019-02-06T10:41:48.644Z,12.80
2019-02-06T10:44:20.490Z,11.07
2019-02-06T10:46:52.329Z,11.60
2019-02-06T10:49:24.291Z,10.33
2019-02-06T10:51:56.062Z,12.30
2019-02-06T10:55:00.223Z,10.57
2019-02-06T10:57:35.239Z,10.07
2019-02-06T11:00:13.675Z,9.27
2019-02-06T11:02:47.335Z,15.27
2019-02-06T11:05:20.121Z,11.97
2019-02-06T11:07:52.700Z,10.10
2019-02-06T11:10:25.683Z,11.87
2019-02-06T11:12:58.135Z,9.20
2019-02-06T11:15:31.038Z,9.33
2019-02-06T11:18:03.322Z,11.37
2019-02-06T11:20:37.448Z,10.40
2019-02-06T11:23:10.999Z,11.40
2019-02-06T11:25:43.241Z,12.37
2019-02-06T11:28:16.095Z,9.27
2019-02-06T11:30:48.429Z,10.87
2019-02-06T11:33:21.594Z,8.07
2019-02-06T11:35:54.546Z,12.47
2019-02-06T11:38:28.310Z,11.57
2019-02-06T11:41:03.339Z,14.13
2019-02-06T11:43:35.975Z,11.80
2019-02-06T11:46:09.137Z,14.73
2019-02-06T11:48:43.418Z,11.60
2019-02-06T11:51:15.743Z,14.17
2019-02-06T11:53:47.757Z,16.30
2019-02-06T11:56:20.472Z,14.40
2019-02-06T11:58:52.584Z,19.40
2019-02-06T12:01:48.183Z,17.23
2019-02-06T12:04:21.024Z,16.20
2019-02-06T12:06:53.752Z,15.40
2019-02-06T12:09:26.558Z,15.27
2019-02-06T12:11:58.606Z,13.13
2019-02-06T12:14:32.438Z,11.43
2019-02-06T12:17:04.797Z,9.87
2019-02-06T12:19:36.778Z,11.63
2019-02-06T12:22:10.409Z,8.60
2019-02-06T12:24:42.209Z,10.60
2019-02-06T12:27:14.016Z,10.43
2019-02-06T12:29:48.136Z,10.03
2019-02-06T12:32:19.777Z,10.73
2019-02-06T12:34:51.656Z,12.63
2019-02-06T12:37:23.729Z,11.60
2019-02-06T12:39:55.373Z,10.20
2019-02-06T12:42:27.092Z,13.53
2019-02-06T12:44:59.176Z,11.70
2019-02-06T12:47:31.131Z,15.47
2019-02-06T12:50:02.770Z,16.27
2019-02-06T12:52:34.796Z,16.73
2019-02-06T12:55:08.867Z,18.27
2019-02-06T12:57:40.896Z,22.40
2019-02-06T13:00:18.082Z,21.17
2019-02-06T13:03:00.154Z,25.57
2019-02-06T13:05:32.104Z,25.13
2019-02-06T13:08:03.822Z,19.00
2019-02-06T13:10:35.637Z,25.03
2019-02-06T13:13:07.439Z,25.37
2019-02-06T13:15:42.298Z,22.90
2019-02-06T13:18:14.085Z,26.73
2019-02-06T13:20:45.776Z,38.57
2019-02-06T13:23:17.746Z,30.90
2019-02-06T13:25:50.101Z,28.93
2019-02-06T13:28:22.455Z,28.73
2019-02-06T13:30:54.021Z,27.97
2019-02-06T13:33:25.819Z,31.87
2019-02-06T13:35:57.960Z,33.13
2019-02-06T13:38:29.819Z,32.23
2019-02-06T13:41:01.778Z,27.73
2019-02-06T13:43:33.598Z,30.10
2019-02-06T13:46:05.449Z,34.17
2019-02-06T13:48:36.448Z,37.00
2019-02-06T13:51:16.282Z,37.57
2019-02-06T13:53:42.472Z,32.90
2019-02-06T13:56:14.372Z,31.93
2019-02-06T13:58:46.071Z,31.53
2019-02-06T14:01:25.395Z,32.83
2019-02-06T14:03:55.533Z,28.40
2019-02-06T14:06:27.530Z,27.20
2019-02-06T14:08:59.307Z,29.30
2019-02-06T14:11:36.290Z,24.83
2019-02-06T14:14:08.456Z,24.90
2019-02-06T14:17:01.530Z,28.47
2019-02-06T14:19:40.474Z,29.37
2019-02-06T14:22:12.388Z,28.60
2019-02-06T14:24:52.515Z,38.30
2019-02-06T14:27:48.929Z,38.90
2019-02-06T14:31:03.596Z,37.80
2019-02-06T14:34:02.986Z,37.67
2019-02-06T14:37:29.039Z,35.10
2019-02-06T14:40:09.605Z,49.00
2019-02-06T14:43:09.155Z,41.60
2019-02-06T14:46:18.624Z,40.50
2019-02-06T14:49:35.542Z,38.80
2019-02-06T14:52:59.072Z,41.37
2019-02-06T14:56:06.622Z,37.47
2019-02-06T14:59:06.115Z,38.20
2019-02-06T15:02:15.578Z,37.40
2019-02-06T15:05:20.232Z,42.83
2019-02-06T15:08:31.307Z,42.37
2019-02-06T15:11:29.181Z,36.00
2019-02-06T15:14:51.673Z,36.03
2019-02-06T15:18:01.434Z,36.40
2019-02-06T15:21:07.429Z,29.23
2019-02-06T15:23:51.340Z,26.47
2019-02-06T15:27:21.483Z,32.60
2019-02-06T15:30:34.247Z,27.60
2019-02-06T15:33:53.528Z,38.03
2019-02-06T15:36:52.551Z,53.80
2019-02-06T15:39:48.862Z,49.67
2019-02-06T15:42:33.677Z,47.63
2019-02-06T15:45:22.880Z,45.20
2019-02-06T15:48:45.402Z,44.90
2019-02-06T15:52:05.012Z,50.77
2019-02-06T15:55:31.782Z,64.70
2019-02-06T15:58:39.201Z,49.77
2019-02-06T16:01:43.415Z,52.10
2019-02-06T16:05:00.854Z,66.20
2019-02-06T16:08:02.046Z,40.57
2019-02-06T16:11:41.951Z,39.43
2019-02-06T16:14:49.583Z,40.43
2019-02-06T16:17:43.188Z,47.33
2019-02-06T16:20:40.599Z,52.03
2019-02-06T16:23:55.956Z,49.37
2019-02-06T16:27:03.808Z,45.07
2019-02-06T16:30:34.104Z,43.47
2019-02-06T16:33:25.357Z,39.77
2019-02-06T16:36:35.954Z,48.97
2019-02-06T16:39:37.463Z,57.87
2019-02-06T16:42:58.597Z,57.40
2019-02-06T16:46:06.124Z,45.10
2019-02-06T16:49:05.102Z,36.37
2019-02-06T16:52:18.088Z,35.73
2019-02-06T16:55:36.876Z,50.73
2019-02-06T16:58:25.923Z,34.67
2019-02-06T17:01:11.590Z,40.87
2019-02-06T17:04:20.351Z,33.20
2019-02-06T17:07:14.822Z,39.43
2019-02-06T17:10:26.962Z,39.77
2019-02-06T17:13:30.927Z,39.17
2019-02-06T17:16:34.321Z,32.13
2019-02-06T17:20:14.367Z,39.53
2019-02-06T17:22:58.671Z,35.30
2019-02-06T17:26:11.743Z,34.83
2019-02-06T17:29:17.679Z,42.57
2019-02-06T17:32:39.004Z,42.43
2019-02-06T17:35:56.612Z,40.90
2019-02-06T17:39:23.559Z,44.10
2019-02-06T17:43:12.811Z,39.67
2019-02-06T17:46:22.206Z,43.63
2019-02-06T17:50:04.217Z,37.63
2019-02-06T17:53:38.672Z,29.77
2019-02-06T17:56:40.772Z,36.53
2019-02-06T17:59:39.780Z,35.87
2019-02-06T18:02:42.195Z,35.23
2019-02-06T18:05:45.842Z,33.27
2019-02-06T18:08:56.816Z,37.30
2019-02-06T18:11:27.451Z,36.83
2019-02-06T18:13:59.732Z,34.67
2019-02-06T18:16:31.245Z,32.07
2019-02-06T18:19:02.602Z,28.20
2019-02-06T18:21:34.099Z,31.43
2019-02-06T18:24:06.212Z,31.60
2019-02-06T18:26:42.262Z,27.50
2019-02-06T18:29:13.906Z,31.03
2019-02-06T18:31:45.597Z,35.43
2019-02-06T18:34:17.173Z,28.50
2019-02-06T18:36:49.365Z,34.17
2019-02-06T18:39:21.291Z,32.77
2019-02-06T18:41:52.923Z,39.87
2019-02-06T18:44:25.278Z,34.50
2019-02-06T18:46:58.884Z,27.17
2019-02-06T18:49:30.692Z,29.17
2019-02-06T18:52:02.289Z,32.77
2019-02-06T18:54:34.051Z,28.93
2019-02-06T18:57:06.090Z,32.20
2019-02-06T18:59:38.026Z,33.60
2019-02-06T19:02:11.024Z,25.70
2019-02-06T19:04:42.802Z,33.57
2019-02-06T19:07:17.090Z,34.97
2019-02-06T19:09:48.602Z,33.60
2019-02-06T19:12:20.323Z,34.83
2019-02-06T19:14:52.289Z,29.70
2019-02-06T19:17:24.057Z,35.43
2019-02-06T19:19:55.575Z,38.60
2019-02-06T19:22:28.334Z,40.53
2019-02-06T19:25:00.028Z,38.53
2019-02-06T19:28:12.662Z,34.60
2019-02-06T19:31:10.831Z,37.73
2019-02-06T19:34:19.396Z,40.50
2019-02-06T19:37:26.443Z,37.93
2019-02-06T19:40:32.417Z,39.40
2019-02-06T19:43:44.734Z,40.33
2019-02-06T19:46:45.933Z,40.57
2019-02-06T19:49:54.974Z,40.47
2019-02-06T19:53:02.994Z,42.23
2019-02-06T19:56:09.781Z,36.90
2019-02-06T19:58:58.373Z,42.80
2019-02-06T20:01:43.385Z,40.73
2019-02-06T20:04:32.272Z,42.67
2019-02-06T20:07:19.494Z,44.60
2019-02-06T20:10:08.864Z,44.40
2019-02-06T20:12:58.216Z,42.20
2019-02-06T20:15:39.655Z,44.20
2019-02-06T20:18:25.776Z,38.93
2019-02-06T20:21:16.617Z,42.43
2019-02-06T20:24:07.327Z,44.33
2019-02-06T20:26:57.145Z,43.70
2019-02-06T20:29:38.647Z,40.97
2019-02-06T20:32:36.147Z,48.37
2019-02-06T20:35:28.815Z,47.43
2019-02-06T20:38:03.716Z,51.03
2019-02-06T20:40:36.048Z,45.83
2019-02-06T20:43:08.584Z,50.80
2019-02-06T20:45:39.825Z,44.67
2019-02-06T20:48:11.711Z,38.43
2019-02-06T20:50:43.864Z,49.43
2019-02-06T20:53:15.389Z,52.03
2019-02-06T20:55:47.246Z,42.83
2019-02-06T20:58:18.914Z,53.10
2019-02-06T21:00:50.676Z,48.70
2019-02-06T21:03:22.552Z,49.40
2019-02-06T21:05:54.630Z,52.90
2019-02-06T21:08:26.306Z,50.43
2019-02-06T21:10:57.644Z,53.27
2019-02-06T21:13:33.282Z,57.60
2019-02-06T21:16:01.596Z,42.83
2019-02-06T21:18:32.550Z,48.03
2019-02-06T21:21:04.223Z,40.57
2019-02-06T21:23:35.515Z,49.47
2019-02-06T21:26:07.211Z,44.17
2019-02-06T21:28:58.969Z,48.23
2019-02-06T21:34:12.457Z,52.87
2019-02-06T21:36:43.739Z,52.60
2019-02-06T21:39:14.806Z,52.27
2019-02-06T21:41:46.206Z,50.13
2019-02-06T21:44:17.432Z,52.63
2019-02-06T21:46:48.689Z,50.43
2019-02-06T21:49:19.948Z,51.73
2019-02-06T21:51:51.437Z,47.07
2019-02-06T21:54:22.655Z,54.77
2019-02-06T21:57:33.653Z,51.73
2019-02-06T22:00:54.795Z,54.23
2019-02-06T22:04:26.002Z,54.27
2019-02-06T22:07:40.797Z,53.20
2019-02-06T22:10:59.469Z,52.90
2019-02-06T22:13:30.826Z,52.70
2019-02-06T22:16:02.042Z,51.90
2019-02-06T22:18:33.068Z,53.90
2019-02-06T22:21:04.238Z,54.57
2019-02-06T22:23:35.538Z,56.07
2019-02-06T22:26:07.326Z,55.23
2019-02-06T22:28:38.556Z,47.57
2019-02-06T22:31:10.108Z,59.80
2019-02-06T22:33:41.239Z,56.13
2019-02-06T22:36:12.449Z,56.67
2019-02-06T22:38:43.488Z,58.03
2019-02-06T22:41:14.665Z,46.83
2019-02-06T22:43:45.618Z,59.53
2019-02-06T22:46:16.617Z,61.87
2019-02-06T22:48:47.535Z,62.73
2019-02-06T22:51:18.695Z,62.63
2019-02-06T22:53:49.933Z,43.63
2019-02-06T22:56:20.934Z,58.10
2019-02-06T22:58:51.844Z,57.37
2019-02-06T23:01:48.659Z,64.83
2019-02-06T23:04:20.550Z,59.57
2019-02-06T23:06:51.758Z,62.33
2019-02-06T23:09:22.659Z,62.20
2019-02-06T23:11:54.418Z,63.07
2019-02-06T23:14:26.181Z,67.33
2019-02-06T23:16:58.099Z,62.20
2019-02-06T23:19:29.660Z,65.77
2019-02-06T23:22:01.540Z,62.90
2019-02-06T23:24:32.844Z,67.60
2019-02-06T23:27:04.424Z,72.93
2019-02-06T23:29:35.475Z,69.87
2019-02-06T23:32:06.715Z,69.63
2019-02-06T23:34:37.554Z,61.57
2019-02-06T23:37:11.334Z,72.10
2019-02-06T23:39:41.325Z,69.53
2019-02-06T23:42:12.470Z,80.73
2019-02-06T23:44:43.484Z,82.53
2019-02-06T23:47:14.737Z,78.70
2019-02-06T23:49:45.834Z,87.43
2019-02-06T23:52:17.276Z,84.27
2019-02-06T23:54:48.252Z,84.37
2019-02-06T23:57:19.260Z,85.60
2019-02-06T23:59:50.307Z,81.23
